createdAt,value
2023-11-15T00:01:38.056Z,10.37
2023-11-15T00:04:05.804Z,9.05
2023-11-15T00:06:33.424Z,12.18
2023-11-15T00:09:00.777Z,12.45
2023-11-15T00:11:28.195Z,10.80
2023-11-15T00:13:56.051Z,13.53
2023-11-15T00:16:23.471Z,9.82
2023-11-15T00:18:50.930Z,11.10
2023-11-15T00:21:19.283Z,9.05
2023-11-15T00:23:46.804Z,11.82
2023-11-15T00:26:14.141Z,12.37
2023-11-15T00:28:50.927Z,9.18
2023-11-15T00:31:18.358Z,11.27
2023-11-15T00:33:45.804Z,12.95
2023-11-15T00:36:13.312Z,9.13
2023-11-15T00:38:41.352Z,9.20
2023-11-15T00:41:09.594Z,9.02
2023-11-15T00:43:36.947Z,13.63
2023-11-15T00:46:05.260Z,9.20
2023-11-15T00:48:33.536Z,9.38
2023-11-15T00:51:01.103Z,9.10
2023-11-15T00:53:28.436Z,9.15
2023-11-15T00:55:55.771Z,11.68
2023-11-15T00:58:24.436Z,11.80
2023-11-15T01:00:56.219Z,10.25
2023-11-15T01:03:30.075Z,12.13
2023-11-15T01:05:57.839Z,8.60
2023-11-15T01:08:25.278Z,11.38
2023-11-15T01:10:53.153Z,10.35
2023-11-15T01:13:20.868Z,8.80
2023-11-15T01:15:48.398Z,8.77
2023-11-15T01:18:15.817Z,10.95
2023-11-15T01:20:43.558Z,8.10
2023-11-15T01:23:11.018Z,8.40
2023-11-15T01:25:38.367Z,9.57
2023-11-15T01:28:05.717Z,9.67
2023-11-15T01:30:33.186Z,8.23
2023-11-15T01:33:00.751Z,8.90
2023-11-15T01:35:28.243Z,8.80
2023-11-15T01:37:55.686Z,9.10
2023-11-15T01:40:23.280Z,7.67
2023-11-15T01:42:50.950Z,10.18
2023-11-15T01:45:18.354Z,10.73
2023-11-15T01:47:45.743Z,8.00
2023-11-15T01:50:14.884Z,7.57
2023-11-15T01:52:42.454Z,9.97
2023-11-15T01:55:16.585Z,10.70
2023-11-15T01:57:44.397Z,10.95
2023-11-15T02:00:12.299Z,9.82
2023-11-15T02:02:43.770Z,12.77
2023-11-15T02:05:11.340Z,10.47
2023-11-15T02:07:39.151Z,11.73
2023-11-15T02:10:07.868Z,10.60
2023-11-15T02:12:35.252Z,13.23
2023-11-15T02:15:02.637Z,12.85
2023-11-15T02:17:30.081Z,12.80
2023-11-15T02:19:57.916Z,13.15
2023-11-15T02:22:26.561Z,14.45
2023-11-15T02:24:53.933Z,13.98
2023-11-15T02:27:21.262Z,10.75
2023-11-15T02:29:48.690Z,11.70
2023-11-15T02:32:16.129Z,9.82
2023-11-15T02:34:43.473Z,11.45
2023-11-15T02:37:10.799Z,10.70
2023-11-15T02:39:38.131Z,10.18
2023-11-15T02:42:05.960Z,9.00
2023-11-15T02:44:36.147Z,12.43
2023-11-15T02:47:04.281Z,10.32
2023-11-15T02:49:31.654Z,8.18
2023-11-15T02:51:58.946Z,9.15
2023-11-15T02:54:26.273Z,10.67
2023-11-15T02:56:53.575Z,8.77
2023-11-15T02:59:21.000Z,8.02
2023-11-15T03:01:49.170Z,7.82
2023-11-15T03:04:16.550Z,7.95
2023-11-15T03:06:44.261Z,8.90
2023-11-15T03:09:11.602Z,7.05
2023-11-15T03:11:38.989Z,7.40
2023-11-15T03:14:06.380Z,7.07
2023-11-15T03:16:33.727Z,7.03
2023-11-15T03:19:01.108Z,6.63
2023-11-15T03:21:28.427Z,5.95
2023-11-15T03:23:56.227Z,6.55
2023-11-15T03:26:23.625Z,6.63
2023-11-15T03:28:52.050Z,6.60
2023-11-15T03:31:19.339Z,7.20
2023-11-15T03:33:49.708Z,7.88
2023-11-15T03:36:17.257Z,7.63
2023-11-15T03:38:44.828Z,7.38
2023-11-15T03:41:12.204Z,8.60
2023-11-15T03:43:42.666Z,8.00
2023-11-15T03:46:09.966Z,6.88
2023-11-15T03:48:37.463Z,7.43
2023-11-15T03:51:05.341Z,8.18
2023-11-15T03:53:33.481Z,9.15
2023-11-15T03:56:00.866Z,9.53
2023-11-15T03:58:28.534Z,12.55
2023-11-15T04:01:01.176Z,10.65
2023-11-15T04:03:28.985Z,10.70
2023-11-15T04:05:56.472Z,10.63
2023-11-15T04:08:24.022Z,11.87
2023-11-15T04:10:51.460Z,13.27
2023-11-15T04:13:20.903Z,12.23
2023-11-15T04:15:52.137Z,13.45
2023-11-15T04:18:19.553Z,12.95
2023-11-15T04:20:46.939Z,17.57
2023-11-15T04:23:14.684Z,13.38
2023-11-15T04:25:42.006Z,15.18
2023-11-15T04:28:09.649Z,14.50
2023-11-15T04:30:36.956Z,16.58
2023-11-15T04:33:04.318Z,13.70
2023-11-15T04:35:31.717Z,12.02
2023-11-15T04:37:59.063Z,13.00
2023-11-15T04:40:28.126Z,10.88
2023-11-15T04:42:55.478Z,11.05
2023-11-15T04:45:23.558Z,11.80
2023-11-15T04:47:51.057Z,12.50
2023-11-15T04:50:18.499Z,8.30
2023-11-15T04:52:45.810Z,8.27
2023-11-15T04:55:13.257Z,9.75
2023-11-15T04:57:40.639Z,10.27
2023-11-15T05:00:12.639Z,10.23
2023-11-15T05:02:40.104Z,9.90
2023-11-15T05:05:07.609Z,12.30
2023-11-15T05:07:36.829Z,11.73
2023-11-15T05:10:06.100Z,14.33
2023-11-15T05:12:33.478Z,9.10
2023-11-15T05:15:00.925Z,10.23
2023-11-15T05:17:28.654Z,9.70
2023-11-15T05:19:56.088Z,10.32
2023-11-15T05:22:23.458Z,10.40
2023-11-15T05:24:50.770Z,10.35
2023-11-15T05:27:19.163Z,10.35
2023-11-15T05:29:47.043Z,10.02
2023-11-15T05:32:14.453Z,10.25
2023-11-15T05:34:41.804Z,11.37
2023-11-15T05:37:09.088Z,9.88
2023-11-15T05:39:36.397Z,11.73
2023-11-15T05:42:04.008Z,10.00
2023-11-15T05:44:32.451Z,10.65
2023-11-15T05:46:59.855Z,10.90
2023-11-15T05:49:32.046Z,9.80
2023-11-15T05:52:06.152Z,11.80
2023-11-15T05:54:33.550Z,8.82
2023-11-15T05:57:00.955Z,8.38
2023-11-15T05:59:28.390Z,9.03
2023-11-15T06:01:56.134Z,8.40
2023-11-15T06:04:23.514Z,8.38
2023-11-15T06:06:50.872Z,7.25
2023-11-15T06:09:18.829Z,7.28
2023-11-15T06:11:46.420Z,9.83
2023-11-15T06:14:16.940Z,6.32
2023-11-15T06:16:44.332Z,5.55
2023-11-15T06:19:11.672Z,5.57
2023-11-15T06:21:42.968Z,6.13
2023-11-15T06:24:10.552Z,7.23
2023-11-15T06:26:38.723Z,5.32
2023-11-15T06:29:06.708Z,5.07
2023-11-15T06:31:34.167Z,4.55
2023-11-15T06:34:01.563Z,5.55
2023-11-15T06:36:29.659Z,3.93
2023-11-15T06:38:57.065Z,5.60
2023-11-15T06:41:24.921Z,5.28
2023-11-15T06:43:52.266Z,4.25
2023-11-15T06:46:19.828Z,3.88
2023-11-15T06:48:48.160Z,3.90
2023-11-15T06:51:16.855Z,5.25
2023-11-15T06:53:47.082Z,5.47
2023-11-15T06:56:15.001Z,4.63
2023-11-15T06:58:42.801Z,4.68
2023-11-15T07:01:10.591Z,3.70
2023-11-15T07:03:39.266Z,3.53
2023-11-15T07:06:08.373Z,4.63
2023-11-15T07:08:39.461Z,4.88
2023-11-15T07:11:09.781Z,3.60
2023-11-15T07:13:39.377Z,2.73
2023-11-15T07:16:10.562Z,2.63
2023-11-15T07:18:39.463Z,2.83
2023-11-15T07:21:08.806Z,3.75
2023-11-15T07:23:37.148Z,1.65
2023-11-15T07:26:05.467Z,4.27
2023-11-15T07:28:32.851Z,3.00
2023-11-15T07:31:00.820Z,3.80
2023-11-15T07:33:28.286Z,3.38
2023-11-15T07:38:38.777Z,7.17
2023-11-15T07:41:06.205Z,4.57
2023-11-15T07:43:33.501Z,5.80
2023-11-15T07:46:00.922Z,5.63
2023-11-15T07:48:28.660Z,5.40
2023-11-15T07:50:57.547Z,5.83
2023-11-15T07:53:25.966Z,5.10
2023-11-15T07:55:53.980Z,7.45
2023-11-15T07:58:21.318Z,7.15
2023-11-15T08:00:49.112Z,5.03
2023-11-15T08:03:17.398Z,6.13
2023-11-15T08:05:45.109Z,5.72
2023-11-15T08:08:12.451Z,7.25
2023-11-15T08:10:43.400Z,7.68
2023-11-15T08:13:10.740Z,8.02
2023-11-15T08:15:43.412Z,7.83
2023-11-15T08:18:11.137Z,7.45
2023-11-15T08:20:38.576Z,9.38
2023-11-15T08:23:06.163Z,8.35
2023-11-15T08:25:33.484Z,6.07
2023-11-15T08:28:02.950Z,5.30
2023-11-15T08:30:30.814Z,5.18
2023-11-15T08:32:58.174Z,7.88
2023-11-15T08:35:25.582Z,5.82
2023-11-15T08:37:55.683Z,5.63
2023-11-15T08:40:29.134Z,4.20
2023-11-15T08:42:58.576Z,6.60
2023-11-15T08:45:26.898Z,5.50
2023-11-15T08:47:58.658Z,5.00
2023-11-15T08:50:26.640Z,4.20
2023-11-15T08:52:55.742Z,3.10
2023-11-15T08:55:23.056Z,2.42
2023-11-15T08:57:50.332Z,5.10
2023-11-15T09:00:19.470Z,2.95
2023-11-15T09:02:48.650Z,3.63
2023-11-15T09:05:17.221Z,4.23
2023-11-15T09:07:45.180Z,3.92
2023-11-15T09:10:14.787Z,4.07
2023-11-15T09:12:42.742Z,2.00
2023-11-15T09:15:13.551Z,3.33
2023-11-15T09:17:47.429Z,2.20
2023-11-15T09:20:27.250Z,3.13
2023-11-15T09:22:55.268Z,3.55
2023-11-15T09:25:23.519Z,4.40
2023-11-15T09:27:51.608Z,2.40
2023-11-15T09:30:28.363Z,4.57
2023-11-15T09:32:56.134Z,3.00
2023-11-15T09:35:29.046Z,1.90
2023-11-15T09:37:58.539Z,3.33
2023-11-15T09:40:26.840Z,2.72
2023-11-15T09:42:55.731Z,2.33
2023-11-15T09:45:24.691Z,2.70
2023-11-15T09:47:52.717Z,2.63
2023-11-15T09:50:28.413Z,3.83
2023-11-15T09:52:59.780Z,2.90
2023-11-15T09:55:30.410Z,2.53
2023-11-15T09:57:57.808Z,2.53
2023-11-15T10:00:30.501Z,2.22
2023-11-15T10:02:58.538Z,4.55
2023-11-15T10:05:29.675Z,3.97
2023-11-15T10:08:09.936Z,2.77
2023-11-15T10:10:37.410Z,2.97
2023-11-15T10:13:15.632Z,4.82
2023-11-15T10:15:45.785Z,0.93
2023-11-15T10:18:15.664Z,1.52
2023-11-15T10:20:43.985Z,1.67
2023-11-15T10:23:12.965Z,1.75
2023-11-15T10:25:53.508Z,2.47
2023-11-15T10:28:23.912Z,1.38
2023-11-15T10:51:58.029Z,1.88
2023-11-15T10:54:29.722Z,2.13
2023-11-15T10:56:57.709Z,0.90
2023-11-15T10:59:26.985Z,1.48
2023-11-15T11:01:55.830Z,1.00
2023-11-15T11:04:23.454Z,1.38
2023-11-15T11:06:59.384Z,2.73
2023-11-15T11:09:59.180Z,6.18
2023-11-15T11:12:26.792Z,2.90
2023-11-15T11:15:20.756Z,4.25
2023-11-15T11:17:50.015Z,4.25
2023-11-15T11:20:27.331Z,3.60
2023-11-15T11:23:25.039Z,3.35
2023-11-15T11:26:31.157Z,1.35
2023-11-15T11:29:05.030Z,2.58
2023-11-15T11:31:32.604Z,1.25
2023-11-15T11:34:10.003Z,2.47
2023-11-15T11:37:03.312Z,4.07
2023-11-15T11:39:47.402Z,4.00
2023-11-15T11:42:28.016Z,3.55
2023-11-15T11:44:58.536Z,2.38
2023-11-15T11:47:26.211Z,8.53
2023-11-15T11:49:53.836Z,3.90
2023-11-15T11:52:21.260Z,1.42
2023-11-15T11:54:53.908Z,4.25
2023-11-15T11:57:22.557Z,3.70
2023-11-15T12:00:03.273Z,0.97
2023-11-15T12:02:36.118Z,2.38
2023-11-15T12:05:04.403Z,2.28
2023-11-15T12:07:31.791Z,5.22
2023-11-15T12:10:06.326Z,1.23
2023-11-15T12:12:33.677Z,1.40
2023-11-15T12:15:01.131Z,2.70
2023-11-15T12:17:41.678Z,2.53
2023-11-15T12:20:10.303Z,1.27
2023-11-15T12:22:47.267Z,2.28
2023-11-15T12:25:15.655Z,0.80
2023-11-15T12:27:45.913Z,1.63
2023-11-15T12:30:13.398Z,2.95
2023-11-15T12:32:43.134Z,0.88
2023-11-15T12:35:13.137Z,3.47
2023-11-15T12:37:40.478Z,1.83
2023-11-15T12:40:24.009Z,1.42
2023-11-15T12:42:57.625Z,2.95
2023-11-15T12:45:35.287Z,1.92
2023-11-15T12:48:06.605Z,4.65
2023-11-15T12:50:35.910Z,3.07
2023-11-15T12:53:07.468Z,1.25
2023-11-15T12:55:54.437Z,2.13
2023-11-15T12:58:30.625Z,1.02
2023-11-15T13:01:02.194Z,2.20
2023-11-15T13:03:32.239Z,1.20
2023-11-15T13:06:14.457Z,2.28
2023-11-15T13:08:51.789Z,2.67
2023-11-15T13:11:26.135Z,1.40
2023-11-15T13:13:53.694Z,4.70
2023-11-15T13:16:21.680Z,2.83
2023-11-15T13:18:49.930Z,3.10
2023-11-15T13:21:18.063Z,3.47
2023-11-15T13:23:50.460Z,6.72
2023-11-15T13:26:18.161Z,2.75
2023-11-15T13:28:48.788Z,2.60
2023-11-15T13:31:18.961Z,3.67
2023-11-15T13:33:48.335Z,2.15
2023-11-15T13:36:20.228Z,5.22
2023-11-15T13:38:47.999Z,3.28
2023-11-15T13:41:16.882Z,1.93
2023-11-15T13:43:48.171Z,2.60
2023-11-15T13:46:15.894Z,4.00
2023-11-15T13:48:43.601Z,5.80
2023-11-15T13:51:13.999Z,2.55
2023-11-15T13:53:42.083Z,1.77
2023-11-15T13:56:10.053Z,3.20
2023-11-15T13:58:37.848Z,3.85
2023-11-15T14:01:06.322Z,6.10
2023-11-15T14:03:34.472Z,2.78
2023-11-15T14:06:06.389Z,2.40
2023-11-15T14:11:14.174Z,6.60
2023-11-15T14:13:43.736Z,7.65
2023-11-15T14:16:11.411Z,5.78
2023-11-15T14:18:38.805Z,6.20
2023-11-15T14:21:07.205Z,7.22
2023-11-15T14:23:34.804Z,3.65
2023-11-15T14:26:03.585Z,4.40
2023-11-15T14:28:31.060Z,5.30
2023-11-15T14:30:58.681Z,3.17
2023-11-15T14:33:26.203Z,2.67
2023-11-15T14:35:53.698Z,5.03
2023-11-15T14:38:21.062Z,3.40
2023-11-15T14:40:48.731Z,1.88
2023-11-15T14:43:16.951Z,1.90
2023-11-15T14:45:48.784Z,1.65
2023-11-15T14:48:16.955Z,1.77
2023-11-15T14:50:44.373Z,2.17
2023-11-15T14:53:23.775Z,3.40
2023-11-15T14:55:51.710Z,3.10
2023-11-15T14:58:23.964Z,1.73
2023-11-15T15:00:52.264Z,6.28
2023-11-15T15:03:20.851Z,3.05
2023-11-15T15:05:51.531Z,3.10
2023-11-15T15:08:19.976Z,2.63
2023-11-15T15:10:50.573Z,1.23
2023-11-15T15:13:17.987Z,1.60
2023-11-15T15:15:45.339Z,1.50
2023-11-15T15:18:16.917Z,2.08
2023-11-15T15:20:49.454Z,2.37
2023-11-15T15:23:18.221Z,3.28
2023-11-15T15:25:45.676Z,3.90
2023-11-15T15:28:13.641Z,4.10
2023-11-15T15:30:41.044Z,2.35
2023-11-15T15:33:09.106Z,3.27
2023-11-15T15:35:39.361Z,2.72
2023-11-15T15:38:09.528Z,3.28
2023-11-15T15:40:39.840Z,1.67
2023-11-15T15:43:07.373Z,3.63
2023-11-15T15:45:36.850Z,4.57
2023-11-15T15:48:05.973Z,2.80
2023-11-15T15:50:33.961Z,2.55
2023-11-15T15:53:01.441Z,3.17
2023-11-15T15:55:28.849Z,2.03
2023-11-15T15:57:56.189Z,2.43
2023-11-15T16:00:25.103Z,1.77
2023-11-15T16:02:54.287Z,2.75
2023-11-15T16:05:22.908Z,4.03
2023-11-15T16:07:50.306Z,2.17
2023-11-15T16:10:17.629Z,1.40
2023-11-15T16:12:45.001Z,1.90
2023-11-15T16:15:17.982Z,2.35
2023-11-15T16:17:45.955Z,2.53
2023-11-15T16:20:13.874Z,2.70
2023-11-15T16:22:41.187Z,2.07
2023-11-15T16:25:09.544Z,3.97
2023-11-15T16:27:37.813Z,4.53
2023-11-15T16:30:06.538Z,4.68
2023-11-15T16:32:36.418Z,3.15
2023-11-15T16:35:06.322Z,2.83
2023-11-15T16:37:36.876Z,2.90
2023-11-15T16:40:06.703Z,4.22
2023-11-15T16:42:34.402Z,3.03
2023-11-15T16:45:02.604Z,2.10
2023-11-15T16:47:30.245Z,3.67
2023-11-15T16:49:59.272Z,2.25
2023-11-15T16:52:26.620Z,6.50
2023-11-15T16:54:53.929Z,2.17
2023-11-15T16:57:21.288Z,2.72
2023-11-15T16:59:50.553Z,5.30
2023-11-15T17:02:18.694Z,6.55
2023-11-15T17:04:46.104Z,4.22
2023-11-15T17:07:15.594Z,5.20
2023-11-15T17:09:43.900Z,3.72
2023-11-15T17:12:14.613Z,2.97
2023-11-15T17:14:42.029Z,4.45
2023-11-15T17:17:09.352Z,2.95
2023-11-15T17:19:37.151Z,3.75
2023-11-15T17:22:04.677Z,2.83
2023-11-15T17:24:31.981Z,3.60
2023-11-15T17:26:59.283Z,4.18
2023-11-15T17:29:26.679Z,2.88
2023-11-15T17:31:55.174Z,3.13
2023-11-15T17:34:22.724Z,2.78
2023-11-15T17:36:50.051Z,3.27
2023-11-15T17:39:17.414Z,4.35
2023-11-15T17:41:44.800Z,3.15
2023-11-15T17:44:15.931Z,2.63
2023-11-15T17:46:43.660Z,3.05
2023-11-15T17:49:12.240Z,3.33
2023-11-15T17:51:39.810Z,3.20
2023-11-15T17:54:08.527Z,3.55
2023-11-15T17:56:36.039Z,4.95
2023-11-15T17:59:04.586Z,3.50
2023-11-15T18:01:33.772Z,3.10
2023-11-15T18:04:01.292Z,2.42
2023-11-15T18:06:29.024Z,5.88
2023-11-15T18:08:56.613Z,2.22
2023-11-15T18:11:24.075Z,2.75
2023-11-15T18:13:51.349Z,4.37
2023-11-15T18:16:18.695Z,3.70
2023-11-15T18:18:46.057Z,3.50
2023-11-15T18:21:13.941Z,5.90
2023-11-15T18:23:41.749Z,9.25
2023-11-15T18:26:09.625Z,4.67
2023-11-15T18:28:39.227Z,4.50
2023-11-15T18:31:07.723Z,3.55
2023-11-15T18:33:35.468Z,8.52
2023-11-15T18:36:02.929Z,4.10
2023-11-15T18:38:30.201Z,21.20
2023-11-15T18:40:58.162Z,14.05
2023-11-15T18:43:25.563Z,5.20
2023-11-15T18:45:52.925Z,4.53
2023-11-15T18:48:20.376Z,9.07
2023-11-15T18:50:48.032Z,8.37
2023-11-15T18:53:16.029Z,5.10
2023-11-15T18:55:44.241Z,4.93
2023-11-15T18:58:11.564Z,5.05
2023-11-15T19:00:39.026Z,3.05
2023-11-15T19:03:09.726Z,2.90
2023-11-15T19:05:38.567Z,2.00
2023-11-15T19:08:07.635Z,2.90
2023-11-15T19:10:35.030Z,2.20
2023-11-15T19:13:02.465Z,2.83
2023-11-15T19:15:31.159Z,2.17
2023-11-15T19:17:58.816Z,1.80
2023-11-15T19:20:29.946Z,2.30
2023-11-15T19:22:58.695Z,1.65
2023-11-15T19:25:27.058Z,1.90
2023-11-15T19:27:55.117Z,2.37
2023-11-15T19:30:24.426Z,2.65
2023-11-15T19:32:54.847Z,2.67
2023-11-15T19:35:22.797Z,2.63
2023-11-15T19:37:51.848Z,4.07
2023-11-15T19:40:20.742Z,3.03
2023-11-15T19:42:49.455Z,3.42
2023-11-15T19:45:18.050Z,4.78
2023-11-15T19:47:45.612Z,4.20
2023-11-15T19:50:13.010Z,3.00
2023-11-15T19:52:41.246Z,2.87
2023-11-15T19:55:09.365Z,2.08
2023-11-15T19:57:38.409Z,3.28
2023-11-15T20:00:06.979Z,3.28
2023-11-15T20:02:41.020Z,3.92
2023-11-15T20:05:14.277Z,2.73
2023-11-15T20:07:41.630Z,4.40
2023-11-15T20:10:10.420Z,2.85
2023-11-15T20:12:40.957Z,2.45
2023-11-15T20:15:11.060Z,2.58
2023-11-15T20:17:38.843Z,1.53
2023-11-15T20:20:08.036Z,3.78
2023-11-15T20:22:45.167Z,2.10
2023-11-15T20:25:19.752Z,3.13
2023-11-15T20:27:47.302Z,2.05
2023-11-15T20:30:15.250Z,2.13
2023-11-15T20:32:42.929Z,2.35
2023-11-15T20:35:11.928Z,2.75
2023-11-15T20:37:39.458Z,2.45
2023-11-15T20:40:09.128Z,3.20
2023-11-15T20:42:36.669Z,2.37
2023-11-15T20:45:04.421Z,3.60
2023-11-15T20:47:33.452Z,3.58
2023-11-15T20:50:00.987Z,2.67
2023-11-15T20:52:28.323Z,4.13
2023-11-15T20:54:55.653Z,2.70
2023-11-15T20:57:24.097Z,3.50
2023-11-15T20:59:57.115Z,4.60
2023-11-15T21:02:26.194Z,2.83
2023-11-15T21:04:53.640Z,3.67
2023-11-15T21:07:21.038Z,3.83
2023-11-15T21:09:48.819Z,4.10
2023-11-15T21:12:16.722Z,3.00
2023-11-15T21:14:44.041Z,7.65
2023-11-15T21:17:11.343Z,4.63
2023-11-15T21:19:39.781Z,4.07
2023-11-15T21:22:07.130Z,3.00
2023-11-15T21:24:34.473Z,3.47
2023-11-15T21:27:01.914Z,3.60
2023-11-15T21:29:29.306Z,3.63
2023-11-15T21:31:57.205Z,4.20
2023-11-15T21:34:24.546Z,3.67
2023-11-15T21:36:52.527Z,4.03
2023-11-15T21:39:20.765Z,3.45
2023-11-15T21:41:48.174Z,4.30
2023-11-15T21:44:18.634Z,5.30
2023-11-15T21:46:45.938Z,6.25
2023-11-15T21:49:14.776Z,6.18
2023-11-15T21:51:42.573Z,4.03
2023-11-15T21:54:10.999Z,3.15
2023-11-15T21:56:38.338Z,3.93
2023-11-15T21:59:05.786Z,4.10
2023-11-15T22:01:33.172Z,5.18
2023-11-15T22:04:00.707Z,4.03
2023-11-15T22:06:28.228Z,3.45
2023-11-15T22:08:55.694Z,4.40
2023-11-15T22:11:23.087Z,5.32
2023-11-15T22:13:50.423Z,4.20
2023-11-15T22:16:18.089Z,3.38
2023-11-15T22:18:47.357Z,6.30
2023-11-15T22:21:14.818Z,5.43
2023-11-15T22:23:42.292Z,3.03
2023-11-15T22:26:09.652Z,6.72
2023-11-15T22:28:37.164Z,4.18
2023-11-15T22:31:04.837Z,3.67
2023-11-15T22:33:32.192Z,3.33
2023-11-15T22:36:04.569Z,2.33
2023-11-15T22:38:31.903Z,2.28
2023-11-15T22:40:59.247Z,3.75
2023-11-15T22:43:26.724Z,2.85
2023-11-15T22:45:54.261Z,3.00
2023-11-15T22:48:21.813Z,2.85
2023-11-15T22:50:49.170Z,3.50
2023-11-15T22:53:16.645Z,3.38
2023-11-15T22:55:43.947Z,2.95
2023-11-15T22:58:12.241Z,4.80
2023-11-15T23:00:39.629Z,5.82
2023-11-15T23:03:10.531Z,6.28
2023-11-15T23:05:42.032Z,5.03
2023-11-15T23:08:09.998Z,5.55
2023-11-15T23:10:39.797Z,5.93
2023-11-15T23:13:07.442Z,5.70
2023-11-15T23:15:34.982Z,6.00
2023-11-15T23:18:02.544Z,5.75
2023-11-15T23:20:35.022Z,7.40
2023-11-15T23:23:06.070Z,5.60
2023-11-15T23:25:34.299Z,8.25
2023-11-15T23:28:01.877Z,5.85
2023-11-15T23:30:29.234Z,6.57
2023-11-15T23:32:58.905Z,6.65
2023-11-15T23:35:26.384Z,6.07
2023-11-15T23:37:58.902Z,4.85
2023-11-15T23:40:26.680Z,6.13
2023-11-15T23:42:55.264Z,5.40
2023-11-15T23:45:22.945Z,6.68
2023-11-15T23:47:51.447Z,6.90
2023-11-15T23:50:19.442Z,9.63
2023-11-15T23:52:55.589Z,10.25
2023-11-15T23:55:23.001Z,9.00
2023-11-15T23:57:50.478Z,10.07
